Terminal Aerodrome Forecast
Issued by NWS

Home | Current Version | Previous Version | Text Only | Print | Product List | Glossary On
Versions: 1 2 3 4 5 6 7 8 9 10 11 12 13
000
FTUS43 KJKL 291300 AAA
TAFSME
TAF AMD
KSME 291343Z 2914/3012 21010G18KT 6SM -SHRA BKN035 BKN050
     FM291430 23009G18KT P6SM VCSH BKN035
     FM291600 25009G17KT P6SM VCSH BKN035
     FM292300 26010G17KT P6SM OVC010
     FM300400 29007KT 3SM -SN OVC008=

USA.gov is the U.S. government's official web portal to all federal, state and local government web resources and services.